sensor_id;sensor_type;location;lat;lon;timestamp;P1;durP1;ratioP1;P2;durP2;ratioP2
23171;SDS011;11754;42.664;23.594;2023-07-13T00:01:12;9.88;;;5.72;;
23171;SDS011;11754;42.664;23.594;2023-07-13T00:03:38;8.13;;;5.82;;
23171;SDS011;11754;42.664;23.594;2023-07-13T00:06:06;7.72;;;5.78;;
23171;SDS011;11754;42.664;23.594;2023-07-13T00:08:32;9.82;;;6.00;;
23171;SDS011;11754;42.664;23.594;2023-07-13T00:10:58;7.70;;;6.07;;
23171;SDS011;11754;42.664;23.594;2023-07-13T00:13:25;9.05;;;6.00;;
23171;SDS011;11754;42.664;23.594;2023-07-13T00:15:50;9.52;;;6.30;;
23171;SDS011;11754;42.664;23.594;2023-07-13T00:18:16;10.98;;;6.00;;
23171;SDS011;11754;42.664;23.594;2023-07-13T00:20:41;8.38;;;5.93;;
23171;SDS011;11754;42.664;23.594;2023-07-13T00:26:29;7.47;;;5.88;;
23171;SDS011;11754;42.664;23.594;2023-07-13T00:28:54;7.43;;;5.63;;
23171;SDS011;11754;42.664;23.594;2023-07-13T00:31:20;8.25;;;6.20;;
23171;SDS011;11754;42.664;23.594;2023-07-13T00:33:46;11.15;;;5.70;;
23171;SDS011;11754;42.664;23.594;2023-07-13T00:36:11;9.10;;;6.30;;
23171;SDS011;11754;42.664;23.594;2023-07-13T00:38:37;8.23;;;6.38;;
23171;SDS011;11754;42.664;23.594;2023-07-13T00:41:03;7.13;;;6.32;;
23171;SDS011;11754;42.664;23.594;2023-07-13T00:43:29;10.25;;;6.45;;
23171;SDS011;11754;42.664;23.594;2023-07-13T00:48:21;10.57;;;6.43;;
23171;SDS011;11754;42.664;23.594;2023-07-13T00:50:51;7.35;;;6.25;;
23171;SDS011;11754;42.664;23.594;2023-07-13T00:53:20;12.25;;;6.65;;
23171;SDS011;11754;42.664;23.594;2023-07-13T00:55:46;7.95;;;6.05;;
23171;SDS011;11754;42.664;23.594;2023-07-13T00:58:13;9.02;;;6.35;;
23171;SDS011;11754;42.664;23.594;2023-07-13T01:00:40;8.27;;;6.43;;
23171;SDS011;11754;42.664;23.594;2023-07-13T01:03:06;10.80;;;6.93;;
23171;SDS011;11754;42.664;23.594;2023-07-13T01:05:32;10.98;;;7.22;;
23171;SDS011;11754;42.664;23.594;2023-07-13T01:07:59;9.75;;;6.38;;
23171;SDS011;11754;42.664;23.594;2023-07-13T01:10:26;9.98;;;6.38;;
23171;SDS011;11754;42.664;23.594;2023-07-13T01:12:52;8.90;;;6.75;;
23171;SDS011;11754;42.664;23.594;2023-07-13T01:18:24;8.53;;;6.17;;
23171;SDS011;11754;42.664;23.594;2023-07-13T01:20:55;10.68;;;6.60;;
23171;SDS011;11754;42.664;23.594;2023-07-13T01:23:25;10.02;;;6.25;;
23171;SDS011;11754;42.664;23.594;2023-07-13T01:25:51;7.47;;;5.88;;
23171;SDS011;11754;42.664;23.594;2023-07-13T01:28:17;10.35;;;6.15;;
23171;SDS011;11754;42.664;23.594;2023-07-13T01:30:43;8.57;;;6.20;;
23171;SDS011;11754;42.664;23.594;2023-07-13T01:33:11;9.50;;;6.22;;
23171;SDS011;11754;42.664;23.594;2023-07-13T01:35:42;13.95;;;6.78;;
23171;SDS011;11754;42.664;23.594;2023-07-13T01:38:08;9.80;;;6.18;;
23171;SDS011;11754;42.664;23.594;2023-07-13T01:40:35;11.85;;;6.32;;
23171;SDS011;11754;42.664;23.594;2023-07-13T01:43:01;14.77;;;6.60;;
23171;SDS011;11754;42.664;23.594;2023-07-13T01:45:27;12.15;;;6.75;;
23171;SDS011;11754;42.664;23.594;2023-07-13T01:47:52;9.23;;;6.95;;
23171;SDS011;11754;42.664;23.594;2023-07-13T01:50:17;14.02;;;6.32;;
23171;SDS011;11754;42.664;23.594;2023-07-13T01:52:55;12.15;;;6.43;;
23171;SDS011;11754;42.664;23.594;2023-07-13T01:55:20;12.82;;;6.13;;
23171;SDS011;11754;42.664;23.594;2023-07-13T01:57:47;10.82;;;6.25;;
23171;SDS011;11754;42.664;23.594;2023-07-13T02:00:13;11.38;;;6.35;;
23171;SDS011;11754;42.664;23.594;2023-07-13T02:02:39;10.98;;;6.43;;
23171;SDS011;11754;42.664;23.594;2023-07-13T02:05:05;10.02;;;5.70;;
23171;SDS011;11754;42.664;23.594;2023-07-13T02:07:31;8.02;;;5.57;;
23171;SDS011;11754;42.664;23.594;2023-07-13T02:09:56;7.30;;;5.65;;
23171;SDS011;11754;42.664;23.594;2023-07-13T02:12:21;7.75;;;5.07;;
23171;SDS011;11754;42.664;23.594;2023-07-13T02:14:47;8.82;;;6.35;;
23171;SDS011;11754;42.664;23.594;2023-07-13T02:17:12;8.35;;;6.25;;
23171;SDS011;11754;42.664;23.594;2023-07-13T02:19:38;9.00;;;6.20;;
23171;SDS011;11754;42.664;23.594;2023-07-13T02:22:03;10.45;;;6.03;;
23171;SDS011;11754;42.664;23.594;2023-07-13T02:24:29;9.98;;;6.15;;
23171;SDS011;11754;42.664;23.594;2023-07-13T02:26:54;9.80;;;6.00;;
23171;SDS011;11754;42.664;23.594;2023-07-13T02:29:19;8.40;;;6.20;;
23171;SDS011;11754;42.664;23.594;2023-07-13T02:31:45;8.50;;;5.43;;
23171;SDS011;11754;42.664;23.594;2023-07-13T02:34:10;9.73;;;6.13;;
23171;SDS011;11754;42.664;23.594;2023-07-13T02:36:35;10.35;;;6.07;;
23171;SDS011;11754;42.664;23.594;2023-07-13T02:39:01;12.30;;;6.57;;
23171;SDS011;11754;42.664;23.594;2023-07-13T02:41:28;7.10;;;5.90;;
23171;SDS011;11754;42.664;23.594;2023-07-13T02:43:53;12.43;;;6.93;;
23171;SDS011;11754;42.664;23.594;2023-07-13T02:46:19;10.40;;;6.13;;
23171;SDS011;11754;42.664;23.594;2023-07-13T02:48:45;9.82;;;6.70;;
23171;SDS011;11754;42.664;23.594;2023-07-13T02:51:10;11.93;;;6.88;;
23171;SDS011;11754;42.664;23.594;2023-07-13T02:53:36;21.60;;;6.57;;
23171;SDS011;11754;42.664;23.594;2023-07-13T02:56:05;10.05;;;6.72;;
23171;SDS011;11754;42.664;23.594;2023-07-13T02:58:30;15.13;;;7.40;;
23171;SDS011;11754;42.664;23.594;2023-07-13T03:00:56;13.68;;;6.72;;
23171;SDS011;11754;42.664;23.594;2023-07-13T03:03:22;13.82;;;6.68;;
23171;SDS011;11754;42.664;23.594;2023-07-13T03:05:48;13.00;;;7.25;;
23171;SDS011;11754;42.664;23.594;2023-07-13T03:08:25;12.27;;;7.45;;
23171;SDS011;11754;42.664;23.594;2023-07-13T03:10:58;11.75;;;7.00;;
23171;SDS011;11754;42.664;23.594;2023-07-13T03:13:28;11.90;;;6.95;;
23171;SDS011;11754;42.664;23.594;2023-07-13T03:15:53;11.20;;;7.10;;
23171;SDS011;11754;42.664;23.594;2023-07-13T03:18:18;15.07;;;7.28;;
23171;SDS011;11754;42.664;23.594;2023-07-13T03:20:44;10.70;;;6.53;;
23171;SDS011;11754;42.664;23.594;2023-07-13T03:23:09;11.35;;;7.18;;
23171;SDS011;11754;42.664;23.594;2023-07-13T03:25:43;11.23;;;7.50;;
23171;SDS011;11754;42.664;23.594;2023-07-13T03:28:10;8.73;;;6.85;;
23171;SDS011;11754;42.664;23.594;2023-07-13T03:30:36;16.20;;;7.25;;
23171;SDS011;11754;42.664;23.594;2023-07-13T03:33:01;7.97;;;7.18;;
23171;SDS011;11754;42.664;23.594;2023-07-13T03:35:26;14.90;;;6.72;;
23171;SDS011;11754;42.664;23.594;2023-07-13T03:37:52;11.80;;;7.55;;
23171;SDS011;11754;42.664;23.594;2023-07-13T03:40:17;13.02;;;7.13;;
23171;SDS011;11754;42.664;23.594;2023-07-13T03:42:42;15.10;;;7.18;;
23171;SDS011;11754;42.664;23.594;2023-07-13T03:45:08;11.07;;;6.85;;
23171;SDS011;11754;42.664;23.594;2023-07-13T03:47:34;14.18;;;6.97;;
23171;SDS011;11754;42.664;23.594;2023-07-13T03:49:59;13.80;;;7.30;;
23171;SDS011;11754;42.664;23.594;2023-07-13T03:52:25;10.38;;;6.75;;
23171;SDS011;11754;42.664;23.594;2023-07-13T03:54:50;11.40;;;6.63;;
23171;SDS011;11754;42.664;23.594;2023-07-13T03:57:15;13.30;;;7.05;;
23171;SDS011;11754;42.664;23.594;2023-07-13T03:59:41;11.90;;;7.45;;
23171;SDS011;11754;42.664;23.594;2023-07-13T04:02:06;10.13;;;7.47;;
23171;SDS011;11754;42.664;23.594;2023-07-13T04:04:31;13.00;;;7.40;;
23171;SDS011;11754;42.664;23.594;2023-07-13T04:06:57;13.98;;;7.20;;
23171;SDS011;11754;42.664;23.594;2023-07-13T04:09:23;14.82;;;7.05;;
23171;SDS011;11754;42.664;23.594;2023-07-13T04:11:49;10.90;;;6.82;;
23171;SDS011;11754;42.664;23.594;2023-07-13T04:14:15;10.25;;;6.93;;
23171;SDS011;11754;42.664;23.594;2023-07-13T04:16:41;11.10;;;6.90;;
23171;SDS011;11754;42.664;23.594;2023-07-13T04:19:07;9.35;;;7.20;;
23171;SDS011;11754;42.664;23.594;2023-07-13T04:21:32;9.57;;;7.72;;
23171;SDS011;11754;42.664;23.594;2023-07-13T04:23:58;13.98;;;6.90;;
23171;SDS011;11754;42.664;23.594;2023-07-13T04:26:23;14.45;;;7.25;;
23171;SDS011;11754;42.664;23.594;2023-07-13T04:28:49;14.45;;;7.13;;
23171;SDS011;11754;42.664;23.594;2023-07-13T04:31:15;15.32;;;7.72;;
23171;SDS011;11754;42.664;23.594;2023-07-13T04:33:41;14.48;;;7.70;;
23171;SDS011;11754;42.664;23.594;2023-07-13T04:36:08;12.02;;;7.80;;
23171;SDS011;11754;42.664;23.594;2023-07-13T04:38:34;18.10;;;8.60;;
23171;SDS011;11754;42.664;23.594;2023-07-13T04:41:01;14.07;;;8.32;;
23171;SDS011;11754;42.664;23.594;2023-07-13T04:43:28;16.65;;;9.23;;
23171;SDS011;11754;42.664;23.594;2023-07-13T04:45:54;14.32;;;8.68;;
23171;SDS011;11754;42.664;23.594;2023-07-13T04:48:20;17.98;;;8.63;;
23171;SDS011;11754;42.664;23.594;2023-07-13T04:50:46;16.95;;;9.57;;
23171;SDS011;11754;42.664;23.594;2023-07-13T04:53:12;12.50;;;9.30;;
23171;SDS011;11754;42.664;23.594;2023-07-13T04:55:38;19.20;;;9.10;;
23171;SDS011;11754;42.664;23.594;2023-07-13T04:58:04;17.73;;;9.68;;
23171;SDS011;11754;42.664;23.594;2023-07-13T05:00:29;27.15;;;9.32;;
23171;SDS011;11754;42.664;23.594;2023-07-13T05:02:57;18.95;;;9.13;;
23171;SDS011;11754;42.664;23.594;2023-07-13T05:05:24;18.95;;;9.02;;
23171;SDS011;11754;42.664;23.594;2023-07-13T05:07:50;17.23;;;8.35;;
23171;SDS011;11754;42.664;23.594;2023-07-13T05:10:16;20.55;;;7.97;;
23171;SDS011;11754;42.664;23.594;2023-07-13T05:12:41;12.27;;;7.80;;
23171;SDS011;11754;42.664;23.594;2023-07-13T05:15:07;14.05;;;8.23;;
23171;SDS011;11754;42.664;23.594;2023-07-13T05:17:38;13.98;;;9.27;;
23171;SDS011;11754;42.664;23.594;2023-07-13T05:20:07;22.85;;;9.15;;
23171;SDS011;11754;42.664;23.594;2023-07-13T05:22:33;17.48;;;8.98;;
23171;SDS011;11754;42.664;23.594;2023-07-13T05:25:00;28.23;;;9.75;;
23171;SDS011;11754;42.664;23.594;2023-07-13T05:27:26;20.50;;;9.35;;
23171;SDS011;11754;42.664;23.594;2023-07-13T05:29:51;33.20;;;9.95;;
23171;SDS011;11754;42.664;23.594;2023-07-13T05:32:17;25.90;;;8.48;;
23171;SDS011;11754;42.664;23.594;2023-07-13T05:34:43;19.35;;;8.10;;
23171;SDS011;11754;42.664;23.594;2023-07-13T05:37:09;16.40;;;7.38;;
23171;SDS011;11754;42.664;23.594;2023-07-13T05:39:34;14.18;;;7.25;;
23171;SDS011;11754;42.664;23.594;2023-07-13T05:42:00;13.18;;;6.88;;
23171;SDS011;11754;42.664;23.594;2023-07-13T05:44:26;8.60;;;6.38;;
23171;SDS011;11754;42.664;23.594;2023-07-13T05:46:52;13.23;;;6.63;;
23171;SDS011;11754;42.664;23.594;2023-07-13T05:49:17;13.38;;;6.53;;
23171;SDS011;11754;42.664;23.594;2023-07-13T05:51:42;11.35;;;6.95;;
23171;SDS011;11754;42.664;23.594;2023-07-13T05:54:08;13.07;;;7.18;;
23171;SDS011;11754;42.664;23.594;2023-07-13T05:56:33;11.00;;;7.20;;
23171;SDS011;11754;42.664;23.594;2023-07-13T05:58:58;11.10;;;6.78;;
23171;SDS011;11754;42.664;23.594;2023-07-13T06:01:23;11.20;;;7.35;;
23171;SDS011;11754;42.664;23.594;2023-07-13T06:03:49;18.05;;;7.35;;
23171;SDS011;11754;42.664;23.594;2023-07-13T06:06:15;17.17;;;8.35;;
23171;SDS011;11754;42.664;23.594;2023-07-13T06:08:41;12.77;;;7.57;;
23171;SDS011;11754;42.664;23.594;2023-07-13T06:11:09;17.15;;;8.00;;
23171;SDS011;11754;42.664;23.594;2023-07-13T06:13:38;14.88;;;8.13;;
23171;SDS011;11754;42.664;23.594;2023-07-13T06:16:04;17.08;;;8.38;;
23171;SDS011;11754;42.664;23.594;2023-07-13T06:18:31;19.35;;;8.20;;
23171;SDS011;11754;42.664;23.594;2023-07-13T06:20:58;15.55;;;8.18;;
23171;SDS011;11754;42.664;23.594;2023-07-13T06:23:23;11.27;;;7.93;;
23171;SDS011;11754;42.664;23.594;2023-07-13T06:25:49;16.55;;;8.40;;
23171;SDS011;11754;42.664;23.594;2023-07-13T06:28:15;12.80;;;8.68;;
23171;SDS011;11754;42.664;23.594;2023-07-13T06:30:40;16.13;;;8.65;;
23171;SDS011;11754;42.664;23.594;2023-07-13T06:33:06;12.48;;;7.82;;
23171;SDS011;11754;42.664;23.594;2023-07-13T06:35:31;10.88;;;7.20;;
23171;SDS011;11754;42.664;23.594;2023-07-13T06:37:57;11.05;;;7.97;;
23171;SDS011;11754;42.664;23.594;2023-07-13T06:40:22;13.65;;;7.78;;
23171;SDS011;11754;42.664;23.594;2023-07-13T06:42:47;12.18;;;7.90;;
23171;SDS011;11754;42.664;23.594;2023-07-13T06:45:13;15.80;;;7.78;;
23171;SDS011;11754;42.664;23.594;2023-07-13T06:47:38;13.57;;;7.78;;
23171;SDS011;11754;42.664;23.594;2023-07-13T06:50:03;12.32;;;7.68;;
23171;SDS011;11754;42.664;23.594;2023-07-13T06:52:29;12.48;;;7.60;;
23171;SDS011;11754;42.664;23.594;2023-07-13T06:54:54;11.05;;;7.55;;
23171;SDS011;11754;42.664;23.594;2023-07-13T06:57:20;9.93;;;7.28;;
23171;SDS011;11754;42.664;23.594;2023-07-13T06:59:45;12.38;;;7.38;;
23171;SDS011;11754;42.664;23.594;2023-07-13T07:02:10;13.13;;;7.53;;
23171;SDS011;11754;42.664;23.594;2023-07-13T07:04:36;12.27;;;6.93;;
23171;SDS011;11754;42.664;23.594;2023-07-13T07:07:02;9.90;;;6.90;;
23171;SDS011;11754;42.664;23.594;2023-07-13T07:09:27;13.98;;;7.60;;
23171;SDS011;11754;42.664;23.594;2023-07-13T07:11:55;17.00;;;7.47;;
23171;SDS011;11754;42.664;23.594;2023-07-13T07:14:26;10.65;;;7.10;;
23171;SDS011;11754;42.664;23.594;2023-07-13T07:16:51;14.47;;;7.67;;
23171;SDS011;11754;42.664;23.594;2023-07-13T07:19:17;12.98;;;7.55;;
23171;SDS011;11754;42.664;23.594;2023-07-13T07:21:42;20.48;;;8.30;;
23171;SDS011;11754;42.664;23.594;2023-07-13T07:24:07;17.02;;;7.45;;
23171;SDS011;11754;42.664;23.594;2023-07-13T07:26:33;16.77;;;7.70;;
23171;SDS011;11754;42.664;23.594;2023-07-13T07:28:59;17.40;;;7.55;;
23171;SDS011;11754;42.664;23.594;2023-07-13T07:31:24;14.02;;;7.35;;
23171;SDS011;11754;42.664;23.594;2023-07-13T07:33:49;15.55;;;7.53;;
23171;SDS011;11754;42.664;23.594;2023-07-13T07:36:15;12.27;;;6.80;;
23171;SDS011;11754;42.664;23.594;2023-07-13T07:38:41;12.15;;;7.10;;
23171;SDS011;11754;42.664;23.594;2023-07-13T07:41:06;13.40;;;7.00;;
23171;SDS011;11754;42.664;23.594;2023-07-13T07:43:32;12.63;;;7.32;;
23171;SDS011;11754;42.664;23.594;2023-07-13T07:45:57;14.50;;;6.93;;
23171;SDS011;11754;42.664;23.594;2023-07-13T07:48:22;12.10;;;6.47;;
23171;SDS011;11754;42.664;23.594;2023-07-13T07:50:48;11.15;;;6.50;;
23171;SDS011;11754;42.664;23.594;2023-07-13T07:53:13;10.82;;;6.30;;
23171;SDS011;11754;42.664;23.594;2023-07-13T07:55:39;10.48;;;6.10;;
23171;SDS011;11754;42.664;23.594;2023-07-13T07:58:04;14.15;;;6.68;;
23171;SDS011;11754;42.664;23.594;2023-07-13T08:00:30;10.23;;;6.78;;
23171;SDS011;11754;42.664;23.594;2023-07-13T08:02:57;9.48;;;6.18;;
23171;SDS011;11754;42.664;23.594;2023-07-13T08:05:22;12.70;;;6.40;;
23171;SDS011;11754;42.664;23.594;2023-07-13T08:07:48;9.43;;;6.75;;
23171;SDS011;11754;42.664;23.594;2023-07-13T08:10:13;10.65;;;6.65;;
23171;SDS011;11754;42.664;23.594;2023-07-13T08:12:39;10.88;;;6.10;;
23171;SDS011;11754;42.664;23.594;2023-07-13T08:15:06;9.90;;;5.97;;
23171;SDS011;11754;42.664;23.594;2023-07-13T08:17:34;8.80;;;6.03;;
23171;SDS011;11754;42.664;23.594;2023-07-13T08:20:06;10.85;;;5.75;;
23171;SDS011;11754;42.664;23.594;2023-07-13T08:24:58;11.95;;;6.13;;
23171;SDS011;11754;42.664;23.594;2023-07-13T08:27:25;11.10;;;6.32;;
23171;SDS011;11754;42.664;23.594;2023-07-13T08:29:52;15.98;;;6.43;;
23171;SDS011;11754;42.664;23.594;2023-07-13T08:32:18;8.55;;;6.25;;
23171;SDS011;11754;42.664;23.594;2023-07-13T08:34:44;7.15;;;5.63;;
23171;SDS011;11754;42.664;23.594;2023-07-13T08:37:10;10.05;;;5.65;;
23171;SDS011;11754;42.664;23.594;2023-07-13T08:39:35;10.32;;;6.20;;
23171;SDS011;11754;42.664;23.594;2023-07-13T08:42:01;11.50;;;6.55;;
23171;SDS011;11754;42.664;23.594;2023-07-13T08:47:17;13.25;;;5.82;;
23171;SDS011;11754;42.664;23.594;2023-07-13T08:49:46;12.00;;;5.47;;
23171;SDS011;11754;42.664;23.594;2023-07-13T08:54:52;15.02;;;5.80;;
23171;SDS011;11754;42.664;23.594;2023-07-13T08:57:21;11.68;;;5.80;;
23171;SDS011;11754;42.664;23.594;2023-07-13T08:59:55;10.13;;;5.50;;
23171;SDS011;11754;42.664;23.594;2023-07-13T09:05:14;10.65;;;6.00;;
23171;SDS011;11754;42.664;23.594;2023-07-13T09:07:50;11.05;;;5.90;;
23171;SDS011;11754;42.664;23.594;2023-07-13T09:10:28;11.05;;;5.55;;
23171;SDS011;11754;42.664;23.594;2023-07-13T09:15:46;10.07;;;5.18;;
23171;SDS011;11754;42.664;23.594;2023-07-13T09:27:18;8.95;;;5.18;;
23171;SDS011;11754;42.664;23.594;2023-07-13T09:29:48;10.13;;;5.05;;
23171;SDS011;11754;42.664;23.594;2023-07-13T09:32:21;10.35;;;4.93;;
23171;SDS011;11754;42.664;23.594;2023-07-13T09:34:53;14.52;;;5.38;;
23171;SDS011;11754;42.664;23.594;2023-07-13T09:37:20;14.90;;;5.10;;
23171;SDS011;11754;42.664;23.594;2023-07-13T09:39:48;10.18;;;5.30;;
23171;SDS011;11754;42.664;23.594;2023-07-13T09:42:15;11.90;;;5.13;;
23171;SDS011;11754;42.664;23.594;2023-07-13T09:44:53;13.82;;;5.35;;
23171;SDS011;11754;42.664;23.594;2023-07-13T09:47:20;11.95;;;5.22;;
23171;SDS011;11754;42.664;23.594;2023-07-13T09:50:15;11.00;;;5.15;;
23171;SDS011;11754;42.664;23.594;2023-07-13T09:58:03;12.50;;;5.35;;
23171;SDS011;11754;42.664;23.594;2023-07-13T10:00:36;18.05;;;5.10;;
23171;SDS011;11754;42.664;23.594;2023-07-13T10:05:43;12.13;;;5.05;;
23171;SDS011;11754;42.664;23.594;2023-07-13T10:08:21;9.95;;;4.70;;
23171;SDS011;11754;42.664;23.594;2023-07-13T10:10:54;14.88;;;5.20;;
23171;SDS011;11754;42.664;23.594;2023-07-13T10:13:36;12.43;;;4.70;;
23171;SDS011;11754;42.664;23.594;2023-07-13T10:16:05;12.10;;;4.82;;
23171;SDS011;11754;42.664;23.594;2023-07-13T10:18:35;11.85;;;5.20;;
23171;SDS011;11754;42.664;23.594;2023-07-13T10:21:10;17.23;;;5.25;;
23171;SDS011;11754;42.664;23.594;2023-07-13T10:23:41;12.68;;;5.03;;
23171;SDS011;11754;42.664;23.594;2023-07-13T10:26:13;8.23;;;4.68;;
23171;SDS011;11754;42.664;23.594;2023-07-13T10:28:43;12.45;;;4.82;;
23171;SDS011;11754;42.664;23.594;2023-07-13T10:31:13;9.60;;;4.50;;
23171;SDS011;11754;42.664;23.594;2023-07-13T10:33:41;10.48;;;4.70;;
23171;SDS011;11754;42.664;23.594;2023-07-13T10:36:13;13.93;;;5.03;;
23171;SDS011;11754;42.664;23.594;2023-07-13T10:38:45;9.30;;;4.50;;
23171;SDS011;11754;42.664;23.594;2023-07-13T10:41:17;9.90;;;5.07;;
23171;SDS011;11754;42.664;23.594;2023-07-13T10:43:47;9.15;;;4.65;;
23171;SDS011;11754;42.664;23.594;2023-07-13T10:46:16;10.48;;;5.05;;
23171;SDS011;11754;42.664;23.594;2023-07-13T10:48:45;14.13;;;4.85;;
23171;SDS011;11754;42.664;23.594;2023-07-13T10:51:14;11.68;;;4.68;;
23171;SDS011;11754;42.664;23.594;2023-07-13T10:53:42;12.63;;;4.80;;
23171;SDS011;11754;42.664;23.594;2023-07-13T10:56:28;12.05;;;4.90;;
23171;SDS011;11754;42.664;23.594;2023-07-13T10:59:01;10.90;;;4.38;;
23171;SDS011;11754;42.664;23.594;2023-07-13T11:01:55;10.45;;;4.68;;
23171;SDS011;11754;42.664;23.594;2023-07-13T11:04:23;6.90;;;4.30;;
23171;SDS011;11754;42.664;23.594;2023-07-13T11:06:52;11.90;;;4.60;;
23171;SDS011;11754;42.664;23.594;2023-07-13T11:19:18;11.77;;;4.50;;
23171;SDS011;11754;42.664;23.594;2023-07-13T11:24:47;12.82;;;4.70;;
23171;SDS011;11754;42.664;23.594;2023-07-13T11:27:25;10.30;;;4.53;;
23171;SDS011;11754;42.664;23.594;2023-07-13T11:29:53;10.43;;;4.55;;
23171;SDS011;11754;42.664;23.594;2023-07-13T11:32:33;12.40;;;4.40;;
23171;SDS011;11754;42.664;23.594;2023-07-13T11:35:00;10.82;;;4.28;;
23171;SDS011;11754;42.664;23.594;2023-07-13T11:37:25;11.45;;;3.75;;
23171;SDS011;11754;42.664;23.594;2023-07-13T11:39:53;9.23;;;3.60;;
23171;SDS011;11754;42.664;23.594;2023-07-13T11:42:19;9.02;;;4.03;;
23171;SDS011;11754;42.664;23.594;2023-07-13T11:44:47;9.27;;;4.05;;
23171;SDS011;11754;42.664;23.594;2023-07-13T11:47:18;9.75;;;3.53;;
23171;SDS011;11754;42.664;23.594;2023-07-13T11:49:52;11.77;;;3.58;;
23171;SDS011;11754;42.664;23.594;2023-07-13T11:52:26;11.02;;;3.88;;
23171;SDS011;11754;42.664;23.594;2023-07-13T11:54:57;11.00;;;3.70;;
23171;SDS011;11754;42.664;23.594;2023-07-13T12:02:58;9.32;;;3.65;;
23171;SDS011;11754;42.664;23.594;2023-07-13T12:05:25;12.27;;;3.60;;
23171;SDS011;11754;42.664;23.594;2023-07-13T12:07:52;9.93;;;3.70;;
23171;SDS011;11754;42.664;23.594;2023-07-13T12:10:26;11.45;;;3.28;;
23171;SDS011;11754;42.664;23.594;2023-07-13T12:13:01;11.93;;;3.63;;
23171;SDS011;11754;42.664;23.594;2023-07-13T12:18:00;12.85;;;3.92;;
23171;SDS011;11754;42.664;23.594;2023-07-13T12:20:27;7.10;;;3.38;;
23171;SDS011;11754;42.664;23.594;2023-07-13T12:23:04;10.00;;;3.30;;
23171;SDS011;11754;42.664;23.594;2023-07-13T12:25:31;14.27;;;3.58;;
23171;SDS011;11754;42.664;23.594;2023-07-13T12:27:56;9.32;;;3.65;;
23171;SDS011;11754;42.664;23.594;2023-07-13T12:30:29;13.38;;;3.03;;
23171;SDS011;11754;42.664;23.594;2023-07-13T12:35:25;9.65;;;3.53;;
23171;SDS011;11754;42.664;23.594;2023-07-13T12:37:56;8.40;;;3.40;;
23171;SDS011;11754;42.664;23.594;2023-07-13T12:40:27;7.63;;;3.33;;
23171;SDS011;11754;42.664;23.594;2023-07-13T12:42:57;9.63;;;3.42;;
23171;SDS011;11754;42.664;23.594;2023-07-13T12:45:24;10.00;;;3.33;;
23171;SDS011;11754;42.664;23.594;2023-07-13T12:47:56;12.07;;;3.53;;
23171;SDS011;11754;42.664;23.594;2023-07-13T12:50:40;10.40;;;3.35;;
23171;SDS011;11754;42.664;23.594;2023-07-13T12:53:14;8.90;;;3.50;;
23171;SDS011;11754;42.664;23.594;2023-07-13T12:55:54;9.20;;;3.60;;
23171;SDS011;11754;42.664;23.594;2023-07-13T13:00:53;22.00;;;4.03;;
23171;SDS011;11754;42.664;23.594;2023-07-13T13:03:26;16.23;;;3.70;;
23171;SDS011;11754;42.664;23.594;2023-07-13T13:05:58;7.38;;;3.40;;
23171;SDS011;11754;42.664;23.594;2023-07-13T13:08:25;9.90;;;3.40;;
23171;SDS011;11754;42.664;23.594;2023-07-13T13:10:50;21.40;;;4.32;;
23171;SDS011;11754;42.664;23.594;2023-07-13T13:13:16;11.07;;;3.80;;
23171;SDS011;11754;42.664;23.594;2023-07-13T13:15:41;11.35;;;3.28;;
23171;SDS011;11754;42.664;23.594;2023-07-13T13:18:17;15.85;;;4.10;;
23171;SDS011;11754;42.664;23.594;2023-07-13T13:27:27;13.82;;;3.72;;
23171;SDS011;11754;42.664;23.594;2023-07-13T13:29:54;11.13;;;3.70;;
23171;SDS011;11754;42.664;23.594;2023-07-13T13:32:19;11.27;;;3.50;;
23171;SDS011;11754;42.664;23.594;2023-07-13T13:34:45;8.65;;;3.60;;
23171;SDS011;11754;42.664;23.594;2023-07-13T13:37:16;7.32;;;3.47;;
23171;SDS011;11754;42.664;23.594;2023-07-13T13:39:44;10.48;;;3.72;;
23171;SDS011;11754;42.664;23.594;2023-07-13T13:42:09;10.40;;;3.60;;
23171;SDS011;11754;42.664;23.594;2023-07-13T13:44:35;15.80;;;4.05;;
23171;SDS011;11754;42.664;23.594;2023-07-13T13:47:00;14.25;;;3.85;;
23171;SDS011;11754;42.664;23.594;2023-07-13T13:49:27;11.77;;;3.80;;
23171;SDS011;11754;42.664;23.594;2023-07-13T13:51:54;13.98;;;4.00;;
23171;SDS011;11754;42.664;23.594;2023-07-13T13:54:20;10.75;;;3.42;;
23171;SDS011;11754;42.664;23.594;2023-07-13T13:56:47;13.45;;;4.20;;
23171;SDS011;11754;42.664;23.594;2023-07-13T13:59:14;13.32;;;3.90;;
23171;SDS011;11754;42.664;23.594;2023-07-13T14:01:40;13.00;;;3.88;;
23171;SDS011;11754;42.664;23.594;2023-07-13T14:07:44;7.47;;;4.10;;
23171;SDS011;11754;42.664;23.594;2023-07-13T14:10:11;11.43;;;3.83;;
23171;SDS011;11754;42.664;23.594;2023-07-13T14:12:40;13.43;;;4.05;;
23171;SDS011;11754;42.664;23.594;2023-07-13T14:15:06;9.10;;;3.42;;
23171;SDS011;11754;42.664;23.594;2023-07-13T14:17:39;12.50;;;3.80;;
23171;SDS011;11754;42.664;23.594;2023-07-13T14:20:05;13.50;;;3.90;;
23171;SDS011;11754;42.664;23.594;2023-07-13T14:22:36;9.43;;;3.47;;
23171;SDS011;11754;42.664;23.594;2023-07-13T14:25:03;11.38;;;3.90;;
23171;SDS011;11754;42.664;23.594;2023-07-13T14:27:28;10.27;;;3.65;;
23171;SDS011;11754;42.664;23.594;2023-07-13T14:29:54;11.60;;;3.50;;
23171;SDS011;11754;42.664;23.594;2023-07-13T14:32:19;9.50;;;3.70;;
23171;SDS011;11754;42.664;23.594;2023-07-13T14:34:44;11.77;;;4.13;;
23171;SDS011;11754;42.664;23.594;2023-07-13T14:37:13;12.57;;;4.07;;
23171;SDS011;11754;42.664;23.594;2023-07-13T14:39:42;14.55;;;3.72;;
23171;SDS011;11754;42.664;23.594;2023-07-13T14:42:08;13.48;;;4.13;;
23171;SDS011;11754;42.664;23.594;2023-07-13T14:47:57;13.85;;;4.43;;
23171;SDS011;11754;42.664;23.594;2023-07-13T14:50:31;10.52;;;4.05;;
23171;SDS011;11754;42.664;23.594;2023-07-13T14:52:57;13.32;;;3.83;;
23171;SDS011;11754;42.664;23.594;2023-07-13T14:55:23;8.57;;;3.55;;
23171;SDS011;11754;42.664;23.594;2023-07-13T14:57:51;14.20;;;4.03;;
23171;SDS011;11754;42.664;23.594;2023-07-13T15:00:20;12.77;;;4.07;;
23171;SDS011;11754;42.664;23.594;2023-07-13T15:02:49;14.38;;;3.80;;
23171;SDS011;11754;42.664;23.594;2023-07-13T15:05:20;12.05;;;3.90;;
23171;SDS011;11754;42.664;23.594;2023-07-13T15:07:49;10.90;;;3.80;;
23171;SDS011;11754;42.664;23.594;2023-07-13T15:12:40;17.50;;;4.03;;
23171;SDS011;11754;42.664;23.594;2023-07-13T15:15:06;10.73;;;4.32;;
23171;SDS011;11754;42.664;23.594;2023-07-13T15:17:36;12.70;;;4.03;;
23171;SDS011;11754;42.664;23.594;2023-07-13T15:20:11;18.25;;;4.22;;
23171;SDS011;11754;42.664;23.594;2023-07-13T15:22:43;11.60;;;3.67;;
23171;SDS011;11754;42.664;23.594;2023-07-13T15:25:15;12.48;;;4.05;;
23171;SDS011;11754;42.664;23.594;2023-07-13T15:27:43;13.63;;;4.07;;
23171;SDS011;11754;42.664;23.594;2023-07-13T15:30:08;11.68;;;3.92;;
23171;SDS011;11754;42.664;23.594;2023-07-13T15:32:34;11.85;;;3.92;;
23171;SDS011;11754;42.664;23.594;2023-07-13T15:34:59;11.27;;;4.72;;
23171;SDS011;11754;42.664;23.594;2023-07-13T15:37:25;14.40;;;5.10;;
23171;SDS011;11754;42.664;23.594;2023-07-13T15:39:50;12.57;;;4.82;;
23171;SDS011;11754;42.664;23.594;2023-07-13T15:42:16;14.70;;;4.90;;
23171;SDS011;11754;42.664;23.594;2023-07-13T15:44:43;11.50;;;4.50;;
23171;SDS011;11754;42.664;23.594;2023-07-13T15:47:12;12.52;;;4.22;;